KBVI

Beaver County Airport

Beaver Falls, Pennsylvania, USA
KBVI 181732Z 1818/1918 29006KT 5SM BR OVC006 FM182000 32003KT P6SM OVC020 FM190600 04004KT 6SM BR OVC020 FM191100 07005KT P6SM VCSH OVC015 FM191400 08007KT 2SM -SN OVC008
Issued Valid From Valid To
Jan-18 @ 17:32 UTC
(3 hours ago)
Jan-18 @ 18:00 UTC
(2 hours ago)
Jan-19 @ 18:00 UTC
(in 22 hours)
Expired Click to View Jan-18 @ 18:00 to Jan-18 @ 20:00
KBVI 181732Z 1818/1918 29006KT 5SM BR OVC006
Wind Visibility Clouds Conditions
290° at 6 knots 5 miles
  • Overcast at 600' AGL
  • Mist
From Jan-18 @ 20:00 to Jan-19 @ 06:00
FM182000 32003KT P6SM OVC020
Wind Visibility Clouds
320° at 3 knots Greater than 6 miles
  • Overcast at 2,000' AGL
From Jan-19 @ 06:00 to Jan-19 @ 11:00
FM190600 04004KT 6SM BR OVC020
Wind Visibility Clouds Conditions
40° at 4 knots 6 miles
  • Overcast at 2,000' AGL
  • Mist
From Jan-19 @ 11:00 to Jan-19 @ 14:00
FM191100 07005KT P6SM VCSH OVC015
Wind Visibility Clouds
70° at 5 knots Greater than 6 miles
  • Overcast at 1,500' AGL
From Jan-19 @ 14:00 to Jan-19 @ 18:00
FM191400 08007KT 2SM -SN OVC008
Wind Visibility Clouds Conditions
80° at 7 knots 2 miles
  • Overcast at 800' AGL
  • Light Snow
KBVI 181732Z 1818/1918 29006KT 5SM BR OVC006 FM182000 32003KT P6SM OVC020 FM190600 04004KT 6SM BR OVC020 FM191100 07005KT P6SM VCSH OVC015 FM191400 08007KT 2SM -SN OVC008
Issued Jan-18 @ 17:32 UTC
(3 hours ago)
Valid From Jan-18 @ 18:00 UTC
(2 hours ago)
Valid To Jan-19 @ 18:00 UTC
(in 22 hours)
Jan-18 @ 18:00 - Jan-18 @ 20:00
Wind Visibility
290° at 6 knots 5 miles
Clouds
  • Overcast at 600' AGL
Conditions
  • Mist
From Jan-18 @ 20:00 - Jan-19 @ 06:00
Wind Visibility
320° at 3 knots Greater than 6 miles
Clouds
  • Overcast at 2,000' AGL
From Jan-19 @ 06:00 - Jan-19 @ 11:00
Wind Visibility
40° at 4 knots 6 miles
Clouds
  • Overcast at 2,000' AGL
Conditions
  • Mist
From Jan-19 @ 11:00 - Jan-19 @ 14:00
Wind Visibility
70° at 5 knots Greater than 6 miles
Clouds
  • Overcast at 1,500' AGL
From Jan-19 @ 14:00 - Jan-19 @ 18:00
Wind Visibility
80° at 7 knots 2 miles
Clouds
  • Overcast at 800' AGL
Conditions
  • Light Snow